x

Columbia River Bar - 20nm West Of Columbia River Mouth (46029) Wave Buoy

11:50pm - Sat 27th Dec 2014 All times are PST. -8 hours from GMT.

  • Sig Wave height 11.5ft
  • Swell Direction
  • Peak Period 8s
  • Average Period 7s
  • Wind
    22mph, 27mph gusts
  • Sea Temp 53°f
  • Air Temp 50°f
  • Sea Pressure 1022.4mb
  • Columbia River Bar - 20nm West Of Columbia River Mouth
  • Columbia River Bar - 20nm West Of Columbia River Mouth

More Historic Weather Station data

Upgrade to MSW Pro to gain access to the past 30 days of data for over 8000 Wavebouys and Weather Stations around the globe.

Join Pro

Comparision Forecast

View Surf forecast
   
Sat 12/27 11:50pm 11.5ft 8s 7s 22 27 mph 1022.4mb 53f 50f
10:50pm 12ft 14s 7s 25 31 mph 1022.3mb 53f 51f
9:50pm 11ft 14s 7s 25 31 mph 1022.2mb 53f 51f
8:50pm 11ft 14s 7s 25 29 mph 1022.2mb 53f 51f
7:50pm 11.5ft 14s 7s 27 36 mph 1022mb 53f 49f
6:50pm 11.5ft 13s 7s 22 27 mph 1021.9mb 53f 51f
5:50pm 11ft 14s 7s 22 27 mph 1022.3mb 53f 51f
4:50pm 11ft 14s 7s 27 34 mph 1022.1mb 53f 51f
3:50pm 11ft 14s 8s 25 29 mph 1021.8mb 53f 51f
2:50pm 10ft 14s 8s 25 29 mph 1021.4mb 53f 51f
1:50pm 10ft 15s 8s 22 29 mph 1021.4mb 53f 52f
12:50pm 10ft 14s 7s 18 22 mph 1022.1mb 53f 51f
11:50am 9ft 12s 7s 20 22 mph 1022.9mb 53f 50f
10:50am 9ft 14s 8s 20 25 mph 1023.3mb 54f 51f
9:50am 8.5ft 14s 8s 20 22 mph 1023.5mb 53f 51f
8:50am 9ft 14s 8s 16 20 mph 1023.2mb 53f 52f
7:50am 9ft 11s 8s 16 18 mph 1022.9mb 53f 52f
6:50am 9.5ft 15s 8s 13 18 mph 1022.8mb 53f 51f
5:50am 9ft 13s 8s 16 20 mph 1023.3mb 53f 52f
4:50am 8.5ft 14s 9s 16 20 mph 1023.9mb 53f 52f
3:50am 8.5ft 14s 9s 13 18 mph 1024.6mb 52f 50f
2:50am 8.5ft 14s 9s 13 16 mph 1025.2mb 52f 52f
1:50am 10ft 13s 10s 7 9 mph 1025.2mb 52f 51f
12:50am 8ft 14s 9s 4 7 mph 1025.7mb 52f 51f
Fri 12/26 11:50pm 9ft 13s 9s 4
mph
1026.2mb 53f 51f
10:50pm 9ft 11s 10s 4 7 mph 1026.6mb 53f 51f
9:50pm 8ft 11s 9s 4 7 mph 1026.8mb 53f 51f
8:50pm 8ft 12s 9s 4 7 mph 1026.9mb 53f 51f
7:50pm 8ft 11s 9s 4 7 mph 1026.8mb 53f 51f
6:50pm 7ft 12s 8s  -  2 mph 1026.7mb 53f 51f
5:50pm 7ft 11s 9s 2 4 mph 1026.7mb 53f 51f
4:50pm 8ft 12s 9s 4 7 mph 1026.5mb 53f 51f
3:50pm 7ft 10s 8s 4 7 mph 1026.4mb 53f 51f
2:50pm 8ft 11s 8s 4 7 mph 1026mb 53f 51f
1:50pm 7ft 10s 8s 2 4 mph 1026mb 53f 52f
12:50pm 7ft 12s 8s 4 7 mph 1026.3mb 52f 51f
11:50am 7.5ft 9s 8s 4 7 mph 1027mb 52f 51f
10:50am 7.5ft 12s 8s 4
mph
1027.4mb 52f 51f
9:50am 7ft 10s 7s 4 7 mph 1027.2mb 52f 51f
8:50am 6ft 12s 7s 2 4 mph 1026.8mb 52f 51f
7:50am 7.5ft 11s 8s 4 7 mph 1026.3mb 52f 50f
6:50am 7ft 10s 8s 4 7 mph 1026.2mb 52f 50f
5:50am 7ft 12s 8s 7 9 mph 1026mb 52f 50f
4:50am 6.5ft 12s 8s 4 7 mph 1025.8mb 52f 50f
3:50am 7.5ft 10s 8s  -  2 mph 1025.7mb 52f 49f
2:50am 7ft 10s 8s 4 7 mph 1025.6mb 52f 50f
1:50am 8.5ft 11s 8s 2 4 mph 1025mb 52f 50f
12:50am 8.5ft 10s 8s 9 13 mph 1024.7mb 52f 49f
Thu 12/25 11:50pm 7.5ft 11s 8s 9 11 mph 1025.1mb 53f 49f
10:50pm 9ft 10s 8s 4 7 mph 1025.5mb 52f 50f
9:50pm 8.5ft 11s 8s 2 4 mph 1025.4mb 52f 49f
8:50pm 9ft 10s 8s 7 9 mph 1025mb 52f 50f
7:50pm 9ft 11s 8s 4 9 mph 1024.9mb 53f 50f
6:50pm 10ft 10s 8s 7 11 mph 1024.7mb 53f 51f
5:50pm 9.5ft 10s 7s 7 11 mph 1024.5mb 53f 49f
4:50pm 10ft 10s 8s 11 16 mph 1024.2mb 53f 51f
3:50pm 11ft 11s 8s 13 16 mph 1024.2mb 53f 51f
2:50pm 11ft 12s 8s 9 11 mph 1023.7mb 53f 50f
1:50pm 11.5ft 11s 8s 16 20 mph 1023.4mb 53f 50f
12:50pm 11ft 11s 8s 9 13 mph 1023.7mb 53f 48f
11:50am 12ft 11s 8s 11 18 mph 1023.8mb 53f 50f
10:50am 12ft 11s 8s 16 18 mph 1023.9mb 53f 51f
9:50am 13ft 11s 8s 16 20 mph 1023.5mb 53f 51f
8:50am 13ft 11s 8s 20 25 mph 1023.1mb 53f 51f
7:50am 13.5ft 12s 8s 20 25 mph 1022.5mb 53f 51f
6:50am 13ft 11s 8s 22 29 mph 1022.1mb 53f 50f
5:50am 15ft 14s 8s 20 25 mph 1021.8mb 53f 50f
4:50am 14ft 13s 8s 25 34 mph 1021.5mb 53f 50f
3:50am 16.5ft 12s 8s 25 31 mph 1021.2mb 53f 51f
2:50am 17ft 11s 8s 25 34 mph 1020.5mb 53f 50f
1:50am 16.5ft 13s 8s 27 34 mph 1020.1mb 53f 51f
12:50am 18.5ft 11s 9s 27 31 mph 1019.5mb 53f 51f
Wed 12/24 11:50pm 18ft 10s 9s 27 34 mph 1019.3mb 54f 51f
10:50pm 17.5ft 13s 9s 29 34 mph 1019.1mb 54f 51f
9:50pm 16.5ft 12s 8s 27 34 mph 1018.9mb 54f 51f
8:50pm 15.5ft 12s 8s 27 34 mph 1018.8mb 54f 52f
7:50pm 16.5ft 13s 8s 25 29 mph 1018.1mb 55f 51f
6:50pm 17ft 14s 8s 29 36 mph 1017.4mb 56f 52f
5:50pm 15.5ft 12s 8s 31 38 mph 1016.7mb 56f 52f
4:50pm 15.5ft 14s 8s 27 34 mph 1016.6mb 56f 51f
3:50pm 16ft 15s 9s 29 36 mph 1016.1mb 56f 51f
2:50pm 14.5ft 15s 8s 29 36 mph 1015.4mb 56f 51f
1:50pm 14ft 14s 8s 25 31 mph 1014.9mb 56f 51f
12:50pm 15.5ft 15s 9s 27 34 mph 1014.5mb 56f 50f
11:50am 15ft 16s 9s 20 27 mph 1014.6mb 56f 50f
10:50am 13ft 13s 9s 22 29 mph 1014.6mb 56f 51f
9:50am 15ft 15s 10s 20 27 mph 1014.7mb 56f 48f